Time;durP1;ratioP1;P1;durP2;ratioP2;P2;SDS_P1;SDS_P2;PMS_P1;PMS_P2;Temp;Humidity;BMP_temperature;BMP_pressure;BME280_temperature;BME280_humidity;BME280_pressure;Samples;Min_cycle;Max_cycle;Signal;HPM_P1;HPM_P2
2022/08/27 00:01:29;;;;;;;0.33;0.33;;;;;;;18.75;100.00;100186.00;4973997;28;20178;-75
2022/08/27 00:03:55;;;;;;;0.77;0.77;;;;;;;18.71;100.00;100191.50;4973737;28;20282;-74
2022/08/27 00:06:22;;;;;;;0.17;0.17;;;;;;;18.70;100.00;100179.63;4973878;28;20269;-74
2022/08/27 00:08:48;;;;;;;0.30;0.30;;;;;;;18.72;100.00;100187.56;4973799;28;20193;-75
2022/08/27 00:11:16;;;;;;;0.50;0.50;;;;;;;18.71;100.00;100186.75;4974088;28;20182;-75
2022/08/27 00:13:41;;;;;;;0.20;0.20;;;;;;;18.66;100.00;100181.56;4973508;28;20178;-75
2022/08/27 00:16:09;;;;;;;0.00;0.00;;;;;;;18.70;100.00;100187.13;4973774;28;20188;-75
2022/08/27 00:18:36;;;;;;;0.20;0.20;;;;;;;18.66;100.00;100181.56;4973668;28;20657;-75
2022/08/27 00:21:03;;;;;;;1.60;1.50;;;;;;;18.67;100.00;100183.16;4973561;28;20174;-75
2022/08/27 00:23:28;;;;;;;0.97;0.83;;;;;;;18.69;100.00;100180.00;4973264;28;20648;-75
2022/08/27 00:25:54;;;;;;;0.00;0.00;;;;;;;18.65;100.00;100182.69;4973546;28;20177;-75
2022/08/27 00:28:20;;;;;;;2.03;1.07;;;;;;;18.68;100.00;100181.19;4973728;28;20188;-75
2022/08/27 00:30:45;;;;;;;1.30;1.30;;;;;;;18.71;100.00;100183.19;4973807;28;20210;-75
2022/08/27 00:33:11;;;;;;;0.93;0.93;;;;;;;18.69;100.00;100180.81;4973482;28;20213;-76
2022/08/27 00:35:37;;;;;;;0.00;0.00;;;;;;;18.69;100.00;100189.09;4973582;28;20257;-75
2022/08/27 00:38:04;;;;;;;1.00;1.00;;;;;;;18.71;100.00;100191.50;4971820;28;20219;-76
2022/08/27 00:40:32;;;;;;;5.23;1.10;;;;;;;18.67;100.00;100182.34;4973335;28;20539;-75
2022/08/27 00:42:58;;;;;;;0.73;0.73;;;;;;;18.63;100.00;100184.22;4971226;28;20174;-75
2022/08/27 00:45:24;;;;;;;0.10;0.10;;;;;;;18.64;100.00;100180.31;4973293;28;20534;-75
2022/08/27 00:47:56;;;;;;;0.50;0.50;;;;;;;18.65;100.00;100185.47;4973219;28;20733;-75
2022/08/27 00:50:33;;;;;;;0.93;0.93;;;;;;;18.63;100.00;100189.75;4973118;28;20192;-75
2022/08/27 00:53:02;;;;;;;0.00;0.00;;;;;;;18.63;100.00;100190.56;4973100;28;20556;-75
2022/08/27 00:55:34;;;;;;;0.97;0.87;;;;;;;18.68;100.00;100192.25;4972631;28;20560;-75
2022/08/27 00:58:21;;;;;;;0.00;0.00;;;;;;;18.65;100.00;100196.53;4972978;28;20208;-75
2022/08/27 01:00:47;;;;;;;0.00;0.00;;;;;;;18.65;100.00;100193.75;4972997;28;20178;-75
2022/08/27 01:03:13;;;;;;;0.10;0.10;;;;;;;18.65;100.00;100196.53;4972848;28;20716;-74
2022/08/27 01:05:41;;;;;;;0.00;0.00;;;;;;;18.62;100.00;100194.47;4972614;28;20557;-75
2022/08/27 01:08:12;;;;;;;2.10;2.00;;;;;;;18.62;100.00;100194.47;4972874;28;20178;-75
2022/08/27 01:10:38;;;;;;;0.30;0.30;;;;;;;18.60;100.00;100202.38;4971231;28;20178;-75
2022/08/27 01:13:23;;;;;;;0.43;0.43;;;;;;;18.60;100.00;100207.09;4972622;28;20721;-75
2022/08/27 01:15:49;;;;;;;0.77;0.17;;;;;;;18.61;100.00;100205.94;4972473;28;20258;-75
2022/08/27 01:18:15;;;;;;;16.63;1.90;;;;;;;18.60;100.00;100215.41;4972698;28;20680;-76
2022/08/27 01:21:10;;;;;;;0.50;0.50;;;;;;;18.57;100.00;100214.19;4972048;28;20178;-75
2022/08/27 01:23:57;;;;;;;0.00;0.00;;;;;;;18.59;100.00;100211.84;4953022;28;20190;-75
2022/08/27 01:26:23;;;;;;;0.00;0.00;;;;;;;18.60;100.00;100218.16;4972361;28;20656;-75
2022/08/27 01:28:50;;;;;;;0.00;0.00;;;;;;;18.61;100.00;100222.53;4972506;28;20174;-75
2022/08/27 01:31:15;;;;;;;0.00;0.00;;;;;;;18.60;100.00;100220.94;4972489;28;20181;-75
2022/08/27 01:33:53;;;;;;;0.13;0.13;;;;;;;18.56;100.00;100220.88;4972693;28;20630;-75
2022/08/27 01:36:18;;;;;;;0.97;0.40;;;;;;;18.57;100.00;100224.44;4972279;28;20211;-74
2022/08/27 01:38:43;;;;;;;0.70;0.70;;;;;;;18.54;100.00;100223.22;4972287;28;20209;-75
2022/08/27 01:41:08;;;;;;;1.10;1.10;;;;;;;18.52;100.00;100228.34;4972200;28;20535;-75
2022/08/27 01:43:34;;;;;;;0.07;0.07;;;;;;;18.49;100.00;100236.56;4970617;28;20255;-75
2022/08/27 01:45:59;;;;;;;0.00;0.00;;;;;;;18.47;100.00;100233.38;4972142;28;20584;-75
2022/08/27 01:48:25;;;;;;;0.00;0.00;;;;;;;18.44;100.00;100237.69;4972021;28;20182;-75
2022/08/27 01:50:50;;;;;;;0.17;0.17;;;;;;;18.41;100.00;100236.44;4971966;28;20285;-75
2022/08/27 01:53:22;;;;;;;7.20;0.87;;;;;;;18.37;100.00;100232.00;4971915;28;20186;-75
2022/08/27 01:55:50;;;;;;;0.00;0.00;;;;;;;18.36;100.00;100228.44;4971717;28;20217;-76
2022/08/27 01:58:18;;;;;;;19.73;2.23;;;;;;;18.37;100.00;100243.06;4971956;28;20208;-75
2022/08/27 02:00:47;;;;;;;0.47;0.47;;;;;;;18.35;100.00;100239.88;4971882;28;20193;-76
2022/08/27 02:03:16;;;;;;;0.00;0.00;;;;;;;18.31;100.00;100247.31;4970444;28;20177;-75
2022/08/27 02:05:42;;;;;;;0.00;0.00;;;;;;;18.28;100.00;100246.09;4971562;28;20265;-75
2022/08/27 02:08:07;;;;;;;1.10;1.10;;;;;;;18.29;100.00;100246.91;4971796;28;20264;-75
2022/08/27 02:10:36;;;;;;;0.63;0.63;;;;;;;18.27;100.00;100250.03;4971670;28;20629;-75
2022/08/27 02:13:02;;;;;;;0.00;0.00;;;;;;;18.29;100.00;100253.22;4971802;28;20646;-75
2022/08/27 02:15:28;;;;;;;1.33;1.20;;;;;;;18.35;100.00;100245.41;4971434;28;20188;-76
2022/08/27 02:17:54;;;;;;;0.10;0.10;;;;;;;18.33;100.00;100250.50;4971526;28;20231;-75
2022/08/27 02:20:20;;;;;;;0.10;0.10;;;;;;;18.32;100.00;100249.72;4971497;28;20701;-75
2022/08/27 02:22:45;;;;;;;0.00;0.00;;;;;;;18.32;100.00;100249.72;4971679;28;20256;-75
2022/08/27 02:25:14;;;;;;;0.20;0.20;;;;;;;18.34;100.00;100254.88;4969935;28;20285;-76
2022/08/27 02:27:41;;;;;;;0.00;0.00;;;;;;;18.36;100.00;100255.31;4971978;28;20548;-75
2022/08/27 02:30:09;;;;;;;0.00;0.00;;;;;;;18.39;100.00;100251.81;4971630;28;20181;-76
2022/08/27 02:32:34;;;;;;;1.03;1.03;;;;;;;18.39;100.00;100252.63;4971401;28;20259;-75
2022/08/27 02:35:02;;;;;;;0.50;0.50;;;;;;;18.39;100.00;100254.59;4971262;28;20173;-76
2022/08/27 02:37:28;;;;;;;0.87;0.87;;;;;;;18.34;100.00;100254.88;4971435;28;20212;-76
2022/08/27 02:39:53;;;;;;;0.00;0.00;;;;;;;18.31;100.00;100247.31;4971510;28;20260;-75
2022/08/27 02:42:19;;;;;;;0.00;0.00;;;;;;;18.32;100.00;100249.72;4971376;28;20213;-75
2022/08/27 02:44:44;;;;;;;0.20;0.20;;;;;;;18.39;100.00;100254.59;4971161;28;20182;-76
2022/08/27 02:47:09;;;;;;;0.30;0.30;;;;;;;18.41;100.00;100255.03;4971391;28;20510;-74
2022/08/27 02:49:35;;;;;;;0.00;0.00;;;;;;;18.40;100.00;100254.22;4971682;28;20177;-75
2022/08/27 02:52:00;;;;;;;0.10;0.10;;;;;;;18.41;100.00;100250.28;4971719;28;20193;-76
2022/08/27 02:54:25;;;;;;;0.00;0.00;;;;;;;18.44;100.00;100249.53;4971147;28;20186;-76
2022/08/27 02:56:53;;;;;;;0.20;0.20;;;;;;;18.44;100.00;100251.50;4971373;28;20181;-76
2022/08/27 02:59:19;;;;;;;0.57;0.57;;;;;;;18.30;100.00;100245.72;4971432;28;20217;-76
2022/08/27 03:01:45;;;;;;;3.80;3.50;;;;;;;18.28;100.00;100251.63;4971874;28;20178;-76
2022/08/27 03:04:11;;;;;;;1.00;0.97;;;;;;;18.21;100.00;100248.72;4971278;28;20205;-76
2022/08/27 03:06:36;;;;;;;0.00;0.00;;;;;;;18.18;100.00;100238.41;4972354;28;20233;-75
2022/08/27 03:09:02;;;;;;;0.83;0.83;;;;;;;18.23;100.00;100237.31;4975390;28;20255;-76
2022/08/27 03:11:28;;;;;;;0.10;0.10;;;;;;;18.20;100.00;100249.88;4975054;28;20233;-75
2022/08/27 03:13:53;;;;;;;1.83;1.70;;;;;;;18.23;100.00;100238.13;4974872;28;20182;-76
2022/08/27 03:16:19;;;;;;;1.07;0.93;;;;;;;18.26;100.00;100239.34;4974838;28;20189;-76
2022/08/27 03:18:44;;;;;;;1.90;1.80;;;;;;;18.29;100.00;100244.13;4974805;28;20743;-77
2022/08/27 03:21:17;;;;;;;0.00;0.00;;;;;;;18.29;100.00;100246.91;4974435;28;20404;-75
2022/08/27 03:23:42;;;;;;;1.97;1.63;;;;;;;18.32;100.00;100235.09;4974405;28;20174;-76
2022/08/27 03:26:10;;;;;;;0.10;0.10;;;;;;;18.34;100.00;100238.28;4974696;28;20264;-76
2022/08/27 03:28:36;;;;;;;0.00;0.00;;;;;;;18.36;100.00;100238.72;4974754;28;20197;-75
2022/08/27 03:31:04;;;;;;;0.03;0.03;;;;;;;18.39;100.00;100240.75;4974582;28;20630;-76
2022/08/27 03:33:34;;;;;;;0.07;0.07;;;;;;;18.41;100.00;100238.41;4973287;28;20182;-76
2022/08/27 03:35:59;;;;;;;0.10;0.10;;;;;;;18.32;100.00;100235.09;4974601;28;20321;-76
2022/08/27 03:38:25;;;;;;;0.00;0.00;;;;;;;18.24;100.00;100234.19;4974431;28;20237;-76
2022/08/27 03:40:51;;;;;;;1.37;1.27;;;;;;;18.22;100.00;100233.72;4974461;28;20521;-76
2022/08/27 03:43:19;;;;;;;0.33;0.33;;;;;;;18.18;100.00;100248.66;4973235;28;20185;-77
2022/08/27 03:45:45;;;;;;;11.13;2.07;;;;;;;18.12;100.00;100237.13;4974177;28;20623;-76
2022/08/27 03:48:11;;;;;;;0.20;0.20;;;;;;;18.07;100.00;100242.94;4974236;28;20253;-76
2022/08/27 03:50:42;;;;;;;0.40;0.40;;;;;;;18.05;100.00;100234.19;4974707;28;20180;-76
2022/08/27 03:53:09;;;;;;;0.40;0.40;;;;;;;18.03;100.00;100233.78;4974293;28;20645;-76
2022/08/27 03:55:35;;;;;;;2.40;2.20;;;;;;;18.03;100.00;100239.31;4973743;28;20567;-76
2022/08/27 03:58:00;;;;;;;0.77;0.77;;;;;;;17.98;100.00;100243.19;4974023;28;20232;-76
2022/08/27 04:00:26;;;;;;;0.50;0.50;;;;;;;18.00;100.00;100245.56;4974517;28;20657;-76
2022/08/27 04:02:53;;;;;;;1.03;0.90;;;;;;;18.02;100.00;100243.25;4974036;28;20170;-75
2022/08/27 04:05:20;;;;;;;0.33;0.33;;;;;;;17.96;100.00;100241.94;4973780;28;20634;-76
2022/08/27 04:07:46;;;;;;;0.60;0.60;;;;;;;17.95;100.00;100241.16;4974180;28;20178;-76
2022/08/27 04:10:13;;;;;;;0.10;0.10;;;;;;;17.95;100.00;100234.81;4974051;28;20205;-76
2022/08/27 04:12:39;;;;;;;0.67;0.67;;;;;;;17.98;100.00;100237.66;4972836;28;20663;-77
2022/08/27 04:15:06;;;;;;;1.87;1.27;;;;;;;17.90;100.00;100232.34;4971392;28;20634;-76
2022/08/27 04:17:31;;;;;;;0.00;0.00;;;;;;;17.91;100.00;100243.03;4972914;28;20268;-76
2022/08/27 04:19:58;;;;;;;1.90;1.50;;;;;;;17.95;100.00;100249.44;4973250;28;20180;-76
2022/08/27 04:22:25;;;;;;;1.07;1.07;;;;;;;17.91;100.00;100234.75;4973709;28;20178;-76
2022/08/27 04:24:51;;;;;;;0.10;0.10;;;;;;;17.92;100.00;100236.34;4973335;28;20529;-76
2022/08/27 04:27:17;;;;;;;0.67;0.67;;;;;;;17.88;100.00;100237.44;4973558;28;20260;-76
2022/08/27 04:29:43;;;;;;;0.23;0.23;;;;;;;17.90;100.00;100235.09;4973621;28;20432;-76
2022/08/27 04:32:09;;;;;;;0.77;0.77;;;;;;;17.89;100.00;100242.59;4973432;28;20652;-76
2022/08/27 04:34:34;;;;;;;0.00;0.00;;;;;;;17.87;100.00;100242.16;4973261;28;20182;-77
2022/08/27 04:37:00;;;;;;;0.00;0.00;;;;;;;17.84;100.00;100246.47;4973271;28;20174;-76
2022/08/27 04:39:27;;;;;;;0.30;0.30;;;;;;;17.85;100.00;100247.25;4973428;28;20253;-76
2022/08/27 04:41:54;;;;;;;0.43;0.43;;;;;;;17.82;100.00;100256.28;4973102;28;20276;-77
2022/08/27 04:44:21;;;;;;;0.10;0.10;;;;;;;17.76;100.00;100250.25;4972997;28;20214;-76
2022/08/27 04:46:47;;;;;;;0.67;0.67;;;;;;;17.72;100.00;100256.88;4973260;28;20180;-76
2022/08/27 04:49:14;;;;;;;0.27;0.27;;;;;;;17.69;100.00;100261.16;4973183;28;20265;-77
2022/08/27 04:51:40;;;;;;;0.00;0.00;;;;;;;17.64;100.00;100261.41;4973051;28;20702;-76
2022/08/27 04:54:06;;;;;;;0.00;0.00;;;;;;;17.64;100.00;100268.91;4972601;28;20240;-75
2022/08/27 04:56:33;;;;;;;0.20;0.20;;;;;;;17.64;100.00;100271.66;4972991;28;20188;-76
2022/08/27 04:59:02;;;;;;;0.40;0.40;;;;;;;17.64;100.00;100275.22;4973049;28;20521;-76
2022/08/27 05:01:29;;;;;;;8.50;1.13;;;;;;;17.64;100.00;100280.75;4973065;28;20565;-76
2022/08/27 05:03:56;;;;;;;0.20;0.20;;;;;;;17.65;100.00;100273.25;4972690;28;20178;-76
2022/08/27 05:06:22;;;;;;;0.53;0.53;;;;;;;17.63;100.00;100270.06;4972962;28;20178;-76
2022/08/27 05:08:49;;;;;;;4.30;1.63;;;;;;;17.59;100.00;100274.72;4973129;28;20182;-76
2022/08/27 05:11:18;;;;;;;0.60;0.60;;;;;;;17.59;100.00;100277.50;4972943;28;20178;-75
2022/08/27 05:13:44;;;;;;;0.10;0.10;;;;;;;17.61;100.00;100278.72;4972435;28;20253;-76
2022/08/27 05:16:12;;;;;;;0.00;0.00;;;;;;;17.59;100.00;100267.22;4972516;28;20493;-76
2022/08/27 05:18:38;;;;;;;2.60;0.27;;;;;;;17.61;100.00;100269.63;4972551;28;20237;-77
2022/08/27 05:21:05;;;;;;;1.00;1.00;;;;;;;17.59;100.00;100270.00;4972655;28;20253;-75
2022/08/27 05:23:31;;;;;;;0.23;0.23;;;;;;;17.61;100.00;100283.44;4971070;28;20266;-76
2022/08/27 05:25:57;;;;;;;0.17;0.17;;;;;;;17.59;100.00;100281.03;4977993;28;20177;-76
2022/08/27 05:28:25;;;;;;;0.00;0.00;;;;;;;17.60;100.00;100274.34;4991823;28;20260;-76
2022/08/27 05:30:53;;;;;;;0.10;0.10;;;;;;;17.58;100.00;100270.38;4991451;28;20188;-76
2022/08/27 05:33:22;;;;;;;1.73;1.63;;;;;;;17.58;100.00;100276.69;4991627;28;20357;-76
2022/08/27 05:35:51;;;;;;;0.23;0.07;;;;;;;17.57;100.00;100272.31;4991610;28;20460;-76
2022/08/27 05:38:17;;;;;;;3.60;1.13;;;;;;;17.61;100.00;100278.72;4991679;28;20197;-76
2022/08/27 05:40:43;;;;;;;0.20;0.20;;;;;;;17.63;100.00;100272.81;4991701;28;20205;-76
2022/08/27 05:43:11;;;;;;;0.17;0.17;;;;;;;17.59;100.00;100275.53;4983138;28;20182;-77
2022/08/27 05:45:45;;;;;;;0.70;0.70;;;;;;;17.60;100.00;100271.59;4969478;28;20174;-76
2022/08/27 05:48:12;;;;;;;0.20;0.20;;;;;;;17.61;100.00;100273.19;4970855;28;20176;-76
2022/08/27 05:50:39;;;;;;;41.20;3.40;;;;;;;17.61;100.00;100272.41;4970966;28;20530;-77
2022/08/27 05:53:05;;;;;;;0.40;0.40;;;;;;;17.59;100.00;100270.00;4972056;28;20228;-76
2022/08/27 05:55:42;;;;;;;0.47;0.37;;;;;;;17.58;100.00;100268.41;4971415;28;20213;-77
2022/08/27 06:01:03;;;;;;;0.33;0.33;;;;;;;17.61;100.00;100266.88;4971978;28;20209;-77
2022/08/27 06:01:03;;;;;;;8.53;1.60;;;;;;;17.58;100.00;100262.88;4971941;28;20213;-76
2022/08/27 06:03:32;;;;;;;0.00;0.00;;;;;;;17.60;100.00;100265.28;4985370;28;20185;-77
2022/08/27 06:06:00;;;;;;;0.30;0.30;;;;;;;17.57;100.00;100261.28;4991005;28;20180;-75
2022/08/27 06:08:25;;;;;;;0.30;0.30;;;;;;;17.55;100.00;100269.94;4991394;28;20204;-76
2022/08/27 06:10:51;;;;;;;1.40;1.30;;;;;;;17.52;100.00;100269.88;4991243;28;20193;-76
2022/08/27 06:13:16;;;;;;;0.97;0.97;;;;;;;17.52;100.00;100272.63;4991190;28;20180;-76
2022/08/27 06:15:42;;;;;;;0.07;0.07;;;;;;;17.52;100.00;100270.66;4990922;28;20173;-76
2022/08/27 06:18:07;;;;;;;9.67;3.03;;;;;;;17.51;100.00;100269.06;4990981;28;20284;-76
2022/08/27 06:20:32;;;;;;;6.97;2.30;;;;;;;17.51;100.00;100282.88;4990910;28;20218;-76
2022/08/27 06:22:58;;;;;;;1.07;1.07;;;;;;;17.49;100.00;100281.59;4991050;28;20173;-76
2022/08/27 06:25:23;;;;;;;0.00;0.00;;;;;;;17.47;100.00;100281.97;4990618;28;20178;-75
2022/08/27 06:27:48;;;;;;;0.00;0.00;;;;;;;17.50;100.00;100272.16;4991095;28;20236;-77
2022/08/27 06:30:14;;;;;;;2.47;0.53;;;;;;;17.52;100.00;100283.69;4990917;28;20288;-77
2022/08/27 06:32:39;;;;;;;0.00;0.00;;;;;;;17.55;100.00;100282.94;4989718;28;20401;-77
2022/08/27 06:35:05;;;;;;;0.70;0.70;;;;;;;17.55;100.00;100280.97;4990504;28;20177;-76
2022/08/27 06:37:30;;;;;;;1.80;1.17;;;;;;;17.58;100.00;100287.75;4981705;28;20210;-80
2022/08/27 06:39:55;;;;;;;0.00;0.00;;;;;;;17.60;100.00;100281.84;4973878;28;20177;-82
2022/08/27 06:42:21;;;;;;;0.33;0.33;;;;;;;17.68;100.00;100286.38;4973889;28;20188;-79
2022/08/27 06:44:46;;;;;;;0.00;0.00;;;;;;;17.71;100.00;100286.47;4976544;28;20272;-82
2022/08/27 06:47:12;;;;;;;0.13;0.13;;;;;;;17.74;100.00;100287.69;4971579;28;20406;-77
2022/08/27 06:49:39;;;;;;;2.03;1.10;;;;;;;17.71;100.00;100289.22;4971661;28;20584;-79
2022/08/27 06:52:05;;;;;;;0.20;0.20;;;;;;;17.73;100.00;100284.13;4975213;28;20174;-83
2022/08/27 06:54:31;;;;;;;0.43;0.43;;;;;;;17.80;100.00;100287.06;4972766;28;20190;-80
2022/08/27 06:56:58;;;;;;;0.30;0.30;;;;;;;17.79;100.00;100290.16;4973952;28;20202;-79
2022/08/27 06:59:23;;;;;;;0.60;0.30;;;;;;;17.82;100.00;100292.22;4975846;28;20205;-79
2022/08/27 07:01:50;;;;;;;0.20;0.20;;;;;;;17.85;100.00;100291.50;4971000;28;20186;-76
2022/08/27 07:04:22;;;;;;;0.57;0.57;;;;;;;17.83;100.00;100307.63;4968753;28;20190;-75
2022/08/27 07:06:48;;;;;;;0.00;0.00;;;;;;;17.83;100.00;100294.63;4975039;28;20186;-75
2022/08/27 07:09:13;;;;;;;0.60;0.60;;;;;;;17.77;100.00;100295.25;4974996;28;20182;-76
2022/08/27 07:11:39;;;;;;;1.83;1.73;;;;;;;17.81;100.00;100302.47;4974962;28;20190;-77
2022/08/27 07:14:06;;;;;;;0.00;0.00;;;;;;;17.79;100.00;100304.81;4974534;28;20174;-77
2022/08/27 07:16:31;;;;;;;3.43;0.87;;;;;;;17.76;100.00;100300.00;4975224;28;20641;-77
2022/08/27 07:18:59;;;;;;;5.23;1.33;;;;;;;17.76;100.00;100301.94;4971587;28;20325;-76
2022/08/27 07:21:26;;;;;;;8.23;0.93;;;;;;;17.72;100.00;100299.13;4963047;28;20181;-76
2022/08/27 07:23:53;;;;;;;6.13;0.93;;;;;;;17.73;100.00;100305.44;4971336;28;20309;-76
2022/08/27 07:26:19;;;;;;;0.13;0.13;;;;;;;17.74;100.00;100298.75;4974487;28;20206;-76
2022/08/27 07:28:46;;;;;;;0.47;0.47;;;;;;;17.71;100.00;100316.88;4974757;28;20558;-76
2022/08/27 07:31:15;;;;;;;0.10;0.10;;;;;;;17.73;100.00;100303.47;4974176;28;20189;-76
2022/08/27 07:33:40;;;;;;;0.17;0.17;;;;;;;17.72;100.00;100307.41;4974685;28;20162;-75
2022/08/27 07:36:07;;;;;;;0.73;0.73;;;;;;;17.77;100.00;100311.84;4974459;28;20193;-77
2022/08/27 07:38:34;;;;;;;0.57;0.50;;;;;;;17.79;100.00;100312.28;4974396;28;20205;-75
2022/08/27 07:41:02;;;;;;;0.30;0.30;;;;;;;17.80;100.00;100309.19;4974496;28;20170;-76
2022/08/27 07:46:13;;;;;;;0.27;0.27;;;;;;;17.74;100.00;100313.38;4950646;28;20198;-75
2022/08/27 07:48:39;;;;;;;0.53;0.53;;;;;;;17.75;100.00;100314.16;4973308;28;20251;-75
2022/08/27 07:51:04;;;;;;;0.50;0.50;;;;;;;17.73;100.00;100310.97;4972942;28;20274;-75
2022/08/27 07:53:31;;;;;;;0.97;0.97;;;;;;;17.72;100.00;100312.94;4961462;28;20630;-75
2022/08/27 07:56:05;;;;;;;5.30;0.90;;;;;;;17.73;100.00;100320.06;4974372;28;20236;-75
2022/08/27 07:58:31;;;;;;;0.77;0.73;;;;;;;17.74;100.00;100320.88;4979947;28;20223;-75
2022/08/27 08:00:57;;;;;;;5.00;0.40;;;;;;;17.79;100.00;100320.56;4993885;28;20704;-76
2022/08/27 08:03:22;;;;;;;0.93;0.93;;;;;;;17.83;100.00;100311.19;4993771;28;20203;-76
2022/08/27 08:05:48;;;;;;;1.33;1.33;;;;;;;17.91;100.00;100319.63;4992661;28;20213;-76
2022/08/27 08:08:14;;;;;;;0.10;0.10;;;;;;;17.91;100.00;100314.91;4993854;28;20227;-76
2022/08/27 08:10:39;;;;;;;0.10;0.10;;;;;;;17.96;100.00;100322.13;4961716;28;20199;-80
2022/08/27 08:13:05;;;;;;;3.03;0.97;;;;;;;18.02;100.00;100334.47;4954945;28;20278;-76
2022/08/27 08:15:31;;;;;;;0.30;0.30;;;;;;;18.07;100.00;100337.72;4954625;28;20229;-77
2022/08/27 08:17:56;;;;;;;0.30;0.30;;;;;;;18.21;100.00;100337.22;4985406;28;20212;-76
2022/08/27 08:20:22;;;;;;;0.17;0.17;;;;;;;18.25;100.00;100340.88;4993679;28;20182;-77
2022/08/27 08:22:47;;;;;;;1.97;1.87;;;;;;;18.22;100.00;100346.31;4974195;28;20253;-76
2022/08/27 08:25:13;;;;;;;1.00;0.93;;;;;;;18.21;100.00;100339.97;4970048;28;20186;-76
2022/08/27 08:27:40;;;;;;;0.27;0.27;;;;;;;18.24;100.00;100338.47;4972305;28;20182;-77
2022/08/27 08:30:06;;;;;;;0.20;0.20;;;;;;;18.26;100.00;100345.25;4972338;28;20641;-75
2022/08/27 08:32:31;;;;;;;0.97;0.97;;;;;;;18.24;100.00;100350.34;4972717;28;20184;-76
2022/08/27 08:34:58;;;;;;;0.30;0.30;;;;;;;18.21;100.00;100351.03;4972371;28;20181;-76
2022/08/27 08:37:24;;;;;;;0.77;0.77;;;;;;;18.25;100.00;100351.13;4972493;28;20233;-76
2022/08/27 08:39:49;;;;;;;0.37;0.37;;;;;;;18.30;100.00;100362.69;4973706;28;20182;-75
2022/08/27 08:42:57;;;;;;;5.00;3.00;;;;;;;18.29;100.00;100358.31;4973287;28;20174;-74
2022/08/27 08:45:28;;;;;;;1.03;1.03;;;;;;;18.16;100.00;100369.91;4919140;28;20197;-73
2022/08/27 08:48:16;;;;;;;0.70;0.70;;;;;;;18.11;100.00;100357.97;4973388;28;20243;-75
2022/08/27 08:50:57;;;;;;;0.00;0.00;;;;;;;18.15;100.00;100363.56;4973352;28;20817;-74
2022/08/27 08:53:41;;;;;;;0.77;0.77;;;;;;;18.09;100.00;100362.28;4973335;28;20214;-74
2022/08/27 08:56:18;;;;;;;10.73;3.17;;;;;;;18.06;100.00;100358.25;4972935;28;20555;-74
2022/08/27 08:59:02;;;;;;;5.30;0.57;;;;;;;18.06;100.00;100366.56;4973093;28;20232;-76
2022/08/27 09:01:27;;;;;;;0.67;0.67;;;;;;;18.14;100.00;100361.97;4972992;28;20194;-73
2022/08/27 09:04:04;;;;;;;0.57;0.47;;;;;;;18.13;100.00;100360.38;4972157;28;20182;-76
2022/08/27 09:07:01;;;;;;;0.00;0.00;;;;;;;18.11;100.00;100359.94;4972798;28;20237;-74
2022/08/27 09:09:26;;;;;;;0.67;0.67;;;;;;;18.09;100.00;100370.56;4972983;28;20233;-74
2022/08/27 09:12:10;;;;;;;0.13;0.13;;;;;;;18.08;100.00;100369.78;4972867;28;20578;-75
2022/08/27 09:14:42;;;;;;;0.10;0.10;;;;;;;18.05;100.00;100370.47;4971120;28;20653;-75
2022/08/27 09:17:07;;;;;;;18.97;0.67;;;;;;;18.03;100.00;100372.81;4973068;28;20216;-76
2022/08/27 09:19:33;;;;;;;0.00;0.00;;;;;;;18.09;100.00;100370.56;4972620;28;20217;-74
2022/08/27 09:22:09;;;;;;;1.47;0.80;;;;;;;18.05;100.00;100367.72;4971181;28;20182;-76
2022/08/27 09:25:19;;;;;;;0.13;0.13;;;;;;;18.10;100.00;100364.69;4972309;28;20174;-76
2022/08/27 09:27:45;;;;;;;7.47;1.60;;;;;;;18.15;100.00;100371.88;4960178;28;20201;-75
2022/08/27 09:30:19;;;;;;;5.13;0.40;;;;;;;18.21;100.00;100373.16;4971926;28;20630;-75
2022/08/27 09:32:55;;;;;;;0.17;0.17;;;;;;;18.20;100.00;100373.53;4972541;28;20539;-75
2022/08/27 09:35:21;;;;;;;0.67;0.67;;;;;;;18.18;100.00;100375.88;4970794;28;20220;-75
2022/08/27 09:37:51;;;;;;;0.53;0.53;;;;;;;18.16;100.00;100378.19;4972283;28;20325;-75
2022/08/27 09:40:19;;;;;;;0.20;0.20;;;;;;;18.13;100.00;100377.78;4972408;28;20186;-75
2022/08/27 09:42:56;;;;;;;8.83;0.30;;;;;;;18.15;100.00;100377.41;4972213;28;20174;-74
2022/08/27 09:45:28;;;;;;;0.00;0.00;;;;;;;18.14;100.00;100376.59;4972724;28;20177;-73
2022/08/27 09:48:15;;;;;;;0.30;0.30;;;;;;;18.18;100.00;100367.56;4972215;28;20182;-73
2022/08/27 09:50:49;;;;;;;0.50;0.47;;;;;;;18.17;100.00;100369.53;4972115;28;20280;-75
2022/08/27 09:53:27;;;;;;;0.83;0.83;;;;;;;18.18;100.00;100368.38;4971973;28;20208;-74
2022/08/27 09:56:02;;;;;;;1.80;1.70;;;;;;;18.24;100.00;100377.19;4971887;28;20260;-74
2022/08/27 09:58:31;;;;;;;0.37;0.37;;;;;;;18.27;100.00;100380.03;4972005;28;20227;-74
2022/08/27 10:01:03;;;;;;;0.63;0.63;;;;;;;18.41;100.00;100371.22;4971806;28;20217;-74
2022/08/27 10:03:29;;;;;;;0.10;0.10;;;;;;;18.56;100.00;100373.06;4971715;28;20180;-74
2022/08/27 10:05:55;;;;;;;0.10;0.10;;;;;;;18.67;100.00;100379.66;4971817;28;20261;-74
2022/08/27 10:08:37;;;;;;;0.27;0.27;;;;;;;18.71;100.00;100374.97;4971855;28;20170;-75
2022/08/27 10:11:32;;;;;;;2.33;0.80;;;;;;;18.82;100.00;100379.91;4972255;28;20170;-75
2022/08/27 10:14:06;;;;;;;4.70;0.67;;;;;;;18.94;100.00;100374.94;4971469;28;20509;-75
2022/08/27 10:16:40;;;;;;;0.27;0.27;;;;;;;19.09;100.00;100370.44;4970779;28;20174;-75
2022/08/27 10:19:33;;;;;;;0.37;0.37;;;;;;;19.26;99.95;100374.72;4971702;28;20264;-74
2022/08/27 10:22:30;;;;;;;0.00;0.00;;;;;;;19.28;98.87;100375.94;4971677;28;20602;-76
2022/08/27 10:25:24;;;;;;;0.00;0.00;;;;;;;19.28;98.30;100375.94;4971207;28;20198;-76
2022/08/27 10:28:04;;;;;;;0.63;0.63;;;;;;;19.39;99.05;100375.31;4971513;28;20197;-75
2022/08/27 10:30:50;;;;;;;2.43;1.40;;;;;;;19.42;98.06;100375.34;4971371;28;20225;-74
2022/08/27 10:33:45;;;;;;;20.73;0.87;;;;;;;19.41;96.92;100372.94;4971567;28;20193;-75
2022/08/27 10:36:25;;;;;;;0.50;0.50;;;;;;;19.41;96.50;100365.44;4971677;28;20177;-75
2022/08/27 10:39:14;;;;;;;1.93;1.50;;;;;;;19.42;96.02;100361.50;4971888;28;20205;-75
2022/08/27 10:41:42;;;;;;;0.57;0.57;;;;;;;19.52;96.89;100368.34;4971484;28;20201;-75
2022/08/27 10:44:34;;;;;;;1.23;1.13;;;;;;;19.65;96.43;100371.72;4971036;28;20209;-76
2022/08/27 10:47:02;;;;;;;0.20;0.20;;;;;;;19.71;95.14;100359.97;4971491;28;20231;-74
2022/08/27 10:49:39;;;;;;;0.20;0.20;;;;;;;19.85;93.06;100362.13;4971413;28;20178;-74
2022/08/27 10:52:21;;;;;;;0.20;0.20;;;;;;;19.83;92.76;100365.28;4971477;28;20185;-73
2022/08/27 10:55:11;;;;;;;0.00;0.00;;;;;;;19.76;91.80;100358.81;4970883;28;20216;-75
2022/08/27 10:57:55;;;;;;;0.63;0.63;;;;;;;19.73;92.59;100368.69;4971166;28;20293;-75
2022/08/27 11:00:23;;;;;;;0.40;0.40;;;;;;;19.75;92.50;100369.13;4971268;28;20189;-74
2022/08/27 11:02:54;;;;;;;0.77;0.77;;;;;;;19.75;93.17;100366.34;4971351;28;20174;-74
2022/08/27 11:05:27;;;;;;;0.53;0.53;;;;;;;19.65;92.39;100371.72;4970933;28;20209;-75
2022/08/27 11:08:00;;;;;;;1.00;1.00;;;;;;;19.69;94.05;100362.31;4971354;28;20599;-76
2022/08/27 11:10:30;;;;;;;0.00;0.00;;;;;;;19.83;94.02;100364.47;4971307;28;20189;-75
2022/08/27 11:13:02;;;;;;;0.20;0.20;;;;;;;19.85;91.83;100371.25;4971674;28;20182;-75
2022/08/27 11:15:32;;;;;;;2.57;1.97;;;;;;;19.85;91.31;100368.47;4971309;28;20174;-75
2022/08/27 11:18:15;;;;;;;0.00;0.00;;;;;;;19.92;92.40;100371.31;4971175;28;20297;-75
2022/08/27 11:21:19;;;;;;;0.10;0.10;;;;;;;19.90;91.03;100379.22;4971276;28;20271;-74
2022/08/27 11:24:01;;;;;;;0.43;0.43;;;;;;;19.88;91.05;100375.22;4927616;28;20574;-75
2022/08/27 11:26:31;;;;;;;0.00;0.00;;;;;;;19.94;91.76;100375.69;4971095;28;20178;-76
2022/08/27 11:29:00;;;;;;;0.30;0.30;;;;;;;19.90;90.38;100378.44;4974409;28;20273;-76
2022/08/27 11:31:34;;;;;;;0.00;0.00;;;;;;;20.03;90.62;100377.00;4974550;28;20182;-75